Panamax Christina — 5BQS4 — position and weather

sailwx.info

Track history (hours):
 
Tides and Currents Weather Stations Pressure Air Temp Water Temp Dewpoint Dewpoint Depression Visibility Wind Speed Wind Dir Waves Ship Positions

Panamax Christina

Last reported at 2018-May-25 03:18 UTC. Time now 2018-Jun-18 00:22 UTC.
Position N 00°56' E 105°20'.
Warning: this ship's position is 23 days out of date.

Length 229 m; draft 6.9 m.

Type: Cargo ship. MMSI: 212921000.

Date/timePositionNaut miles runAvg speedWind from/ knotsBaromVisibWave heightAir tempDewpointWater temp
2018-May-25 03:18N 00°56' E 105°20'613.5
2018-May-25 02:51N 00°59' E 105°15'3913.2
2018-May-24 23:55N 01°21' E 104°43'612.8
2018-May-24 23:25N 01°23' E 104°37'612.7
2018-May-24 22:59N 01°24' E 104°32'712.5
2018-May-24 22:27N 01°22' E 104°25'613.1
2018-May-24 21:59N 01°18' E 104°21'612.5
2018-May-24 21:29N 01°16' E 104°15'613.0
2018-May-24 21:00N 01°16' E 104°08'612.7
2018-May-24 20:30N 01°15' E 104°02'4 8.8
2018-May-24 20:00N 01°15' E 103°58'2 3.6
2018-May-24 19:30N 01°17' E 103°57'0 0.0
2018-May-24 18:56N 01°17' E 103°57'0 0.0
2018-May-24 18:29N 01°17' E 103°57'0 0.0
2018-May-24 17:59N 01°17' E 103°57'0 0.1
2018-May-24 17:03N 01°17' E 103°56'0 0.1
2018-May-24 16:54N 01°17' E 103°56'0 0.0
2018-May-24 16:26N 01°17' E 103°56'0 0.0
2018-May-24 15:56N 01°17' E 103°56'0 0.0
2018-May-24 15:27N 01°17' E 103°56'0 0.0
2018-May-24 14:57N 01°17' E 103°56'0 0.0
2018-May-24 14:24N 01°17' E 103°56'0 0.0
2018-May-24 13:56N 01°17' E 103°56'0 0.0
2018-May-24 13:21N 01°17' E 103°56'8 1.8
2018-May-24 09:00N 01°11' E 103°51'612.2
2018-May-24 08:30N 01°08' E 103°46'713.7
2018-May-24 08:00N 01°03' E 103°40'611.1
2018-May-24 07:30N 01°05' E 103°35'4 8.2
2018-May-24 07:00N 01°08' E 103°32'4 8.9
2018-May-24 06:30N 01°12' E 103°32'510.3
2018-May-24 05:59N 01°17' E 103°33'3 4.5
2018-May-24 05:25N 01°20' E 103°33'0 0.0
2018-May-24 04:55N 01°20' E 103°33'0 0.0
2018-May-24 04:30N 01°20' E 103°33'0 0.0
2018-May-24 03:57N 01°20' E 103°33'0 0.0
2018-May-24 03:21N 01°20' E 103°33'0 0.0
2018-May-24 02:49N 01°20' E 103°33'0 0.0
2018-May-24 02:28N 01°20' E 103°33'0 0.0
2018-May-24 01:58N 01°20' E 103°33'0 0.0
2018-May-23 02:39N 01°20' E 103°33'0 0.0
2018-May-22 22:06N 01°20' E 103°33'0 0.0
2018-May-22 21:54N 01°20' E 103°33'0 0.0
2018-May-22 21:30N 01°20' E 103°33'0 0.0
2018-May-22 20:51N 01°20' E 103°33'0 0.0
2018-May-22 20:21N 01°20' E 103°33'0 0.0
2018-May-22 19:51N 01°20' E 103°33'0 0.0
2018-May-22 19:21N 01°20' E 103°33'0 0.0
2018-May-22 19:00N 01°20' E 103°33'0 0.0
2018-May-22 18:27N 01°20' E 103°33'0 0.0
2018-May-22 17:54N 01°20' E 103°33'0 0.0
2018-May-22 17:30N 01°20' E 103°33'0 0.0
2018-May-22 16:57N 01°20' E 103°33'0 0.0
2018-May-22 16:24N 01°20' E 103°33'0 0.0
2018-May-22 15:51N 01°20' E 103°33'0 0.0
2018-May-21 00:58N 01°20' E 103°33'0 0.0
2018-May-21 00:25N 01°20' E 103°33'0 0.0
2018-May-20 23:58N 01°20' E 103°33'0 0.0
2018-May-20 23:28N 01°20' E 103°33'0 0.0
2018-May-20 23:00N 01°20' E 103°33'0 0.0
2018-May-20 22:30N 01°20' E 103°33'0 0.0
2018-May-20 22:00N 01°20' E 103°33'0 0.2
2018-May-20 21:31N 01°20' E 103°33'1 1.6
2018-May-20 21:00N 01°19' E 103°33'2 4.9
2018-May-20 20:30N 01°17' E 103°33'2 4.9
2018-May-20 20:00N 01°15' E 103°32'2 3.1
2018-May-20 19:30N 01°14' E 103°30'1 2.3
2018-May-20 19:00N 01°15' E 103°29'0 0.2
2018-May-20 18:14N 01°15' E 103°29'0 0.0
2018-May-20 17:59N 01°15' E 103°29'0 0.0
2018-May-20 17:29N 01°15' E 103°29'0 0.0
2018-May-20 17:00N 01°15' E 103°29'0 0.0
2018-May-20 16:30N 01°15' E 103°29'0 0.0
2018-May-20 15:59N 01°15' E 103°29'0 0.0
2018-May-20 15:18N 01°15' E 103°29'0 0.3
2018-May-20 14:59N 01°15' E 103°29'0 0.2
2018-May-20 14:26N 01°15' E 103°29'0 0.1
2018-May-20 14:00N 01°15' E 103°29'0 0.2
2018-May-20 13:30N 01°15' E 103°29'0 0.1
2018-May-20 12:57N 01°15' E 103°29'0 0.1
2018-May-20 12:26N 01°15' E 103°29'0 0.2
2018-May-20 12:00N 01°15' E 103°29'0 0.2
2018-May-20 11:29N 01°15' E 103°29'0 0.0
2018-May-20 10:59N 01°15' E 103°29'0 0.3
2018-May-20 10:21N 01°14' E 103°30'0 0.2
2018-May-20 09:54N 01°15' E 103°30'0 0.0
2018-May-20 09:30N 01°15' E 103°30'0 0.0
2018-May-20 08:53N 01°15' E 103°30'0 0.0
2018-May-20 08:29N 01°15' E 103°30'0 0.0
2018-May-20 08:00N 01°15' E 103°30'0 0.0
2018-May-20 07:29N 01°15' E 103°30'0 0.0
2018-May-20 06:59N 01°15' E 103°30'0 0.1
2018-May-20 06:24N 01°15' E 103°30'0 0.0
2018-May-20 05:57N 01°15' E 103°30'0 0.1
2018-May-20 05:29N 01°15' E 103°30'0 0.0
2018-May-20 04:59N 01°15' E 103°30'0 0.1
2018-May-20 04:18N 01°15' E 103°30'0 0.3
2018-May-20 03:41N 01°15' E 103°29'0 0.2
2018-May-20 03:27N 01°15' E 103°29'0 0.1
2018-May-20 02:57N 01°15' E 103°29'0 0.0
2018-May-20 02:30N 01°15' E 103°29'0 0.0
2018-May-20 01:56N 01°15' E 103°29'0 0.0
2018-May-20 01:30N 01°15' E 103°29'0 0.0
2018-May-20 00:59N 01°15' E 103°29'0 0.0
2018-May-20 00:27N 01°15' E 103°29'0 0.0
2018-May-19 23:56N 01°15' E 103°29'0 0.2
2018-May-19 23:26N 01°15' E 103°29'0 0.1
2018-May-19 22:56N 01°15' E 103°29'0 0.1
2018-May-19 22:30N 01°15' E 103°29'0 0.1
2018-May-19 21:50N 01°14' E 103°29'0 0.2
2018-May-19 21:29N 01°14' E 103°30'0 0.1
2018-May-19 20:56N 01°15' E 103°30'0 0.0
2018-May-19 20:30N 01°15' E 103°30'0 0.0
2018-May-19 19:59N 01°15' E 103°30'0 0.0
2018-May-19 19:28N 01°15' E 103°30'0 0.0
2018-May-19 18:56N 01°15' E 103°30'0 0.0
2018-May-19 18:20N 01°15' E 103°30'0 0.1
2018-May-19 17:59N 01°14' E 103°30'0 0.2
2018-May-19 17:30N 01°15' E 103°30'0 0.4
2018-May-19 16:59N 01°15' E 103°29'0 0.1
2018-May-19 16:29N 01°15' E 103°29'0 0.1
2018-May-19 15:58N 01°15' E 103°29'0 0.0
2018-May-19 15:29N 01°15' E 103°29'0 0.0
2018-May-19 14:57N 01°15' E 103°29'0 0.1
2018-May-19 14:28N 01°15' E 103°29'0 0.2
2018-May-19 13:59N 01°15' E 103°29'0 0.1
2018-May-19 13:30N 01°15' E 103°29'0 0.1
2018-May-19 12:56N 01°15' E 103°29'0 0.1
2018-May-19 12:30N 01°15' E 103°29'0 0.1
2018-May-19 11:59N 01°15' E 103°29'0 0.2
2018-May-19 11:29N 01°15' E 103°30'2 3.6
2018-May-19 11:00N 01°15' E 103°28'3 6.6
2018-May-19 10:30N 01°18' E 103°26'0 0.2
2018-May-19 10:00N 01°18' E 103°25'0 0.3
2018-May-19 09:27N 01°17' E 103°25'0 0.4
2018-May-19 09:00N 01°17' E 103°26'0 0.0
2018-May-19 08:17N 01°17' E 103°26'0 0.2
2018-May-19 08:00N 01°17' E 103°26'0 0.0
2018-May-19 07:12N 01°18' E 103°26'0 0.0
2018-May-19 06:54N 01°17' E 103°26'0 0.0
2018-May-19 06:27N 01°17' E 103°26'0 0.0
2018-May-19 06:00N 01°17' E 103°26'0 0.0
2018-May-19 04:30N 01°17' E 103°26'0 0.0
2018-May-19 04:00N 01°17' E 103°26'0 0.3
2018-May-19 03:09N 01°18' E 103°25'0 0.1
2018-May-19 02:57N 01°18' E 103°25'0 0.0
2018-May-19 02:21N 01°18' E 103°25'0 0.0
2018-May-19 02:00N 01°18' E 103°25'0 0.0
2018-May-19 01:24N 01°18' E 103°25'0 0.0
2018-May-19 00:56N 01°18' E 103°25'0 0.0
2018-May-19 00:29N 01°18' E 103°25'0 0.1
2018-May-19 00:00N 01°18' E 103°25'0 0.0
2018-May-18 23:26N 01°18' E 103°25'0 0.1
2018-May-18 23:00N 01°18' E 103°25'0 0.1
2018-May-18 22:30N 01°18' E 103°25'0 0.0
2018-May-18 21:54N 01°18' E 103°25'0 0.1
2018-May-18 21:26N 01°18' E 103°25'0 0.3
2018-May-18 20:42N 01°17' E 103°26'0 0.0
2018-May-18 20:30N 01°17' E 103°26'0 0.0
2018-May-18 20:00N 01°17' E 103°26'0 0.0
2018-May-18 19:24N 01°17' E 103°26'0 0.0
2018-May-18 18:42N 01°17' E 103°26'0 0.0
2018-May-18 18:21N 01°17' E 103°26'0 0.0
2018-May-18 17:57N 01°17' E 103°26'0 0.0
2018-May-18 17:30N 01°17' E 103°26'0 0.1
2018-May-18 16:51N 01°17' E 103°26'0 0.1
2018-May-18 16:24N 01°17' E 103°26'0 0.1
2018-May-18 15:39N 01°17' E 103°26'0 0.3
2018-May-18 15:21N 01°18' E 103°26'0 0.2
2018-May-18 14:12N 01°18' E 103°25'0 0.0
2018-May-18 14:00N 01°18' E 103°25'0 0.0
2018-May-18 13:24N 01°18' E 103°25'0 0.0
2018-May-18 13:00N 01°18' E 103°25'0 0.0
2018-May-18 12:30N 01°18' E 103°25'0 0.0
2018-May-18 12:00N 01°18' E 103°25'0 0.0
2018-May-18 11:27N 01°18' E 103°25'0 0.0
2018-May-18 10:59N 01°18' E 103°25'0 0.1
2018-May-18 10:24N 01°18' E 103°25'0 0.0
2018-May-18 09:56N 01°18' E 103°25'0 0.0
2018-May-18 09:30N 01°18' E 103°25'0 0.2
2018-May-18 08:18N 01°17' E 103°26'0 0.2
2018-May-18 08:00N 01°17' E 103°26'0 0.0
2018-May-18 07:12N 01°17' E 103°26'0 0.0
2018-May-18 06:23N 01°17' E 103°26'1 1.5
2018-May-18 06:00N 01°17' E 103°25'4 7.0
2018-May-18 05:30N 01°14' E 103°24'612.2
2018-May-18 05:00N 01°17' E 103°19'  
Track history (hours):
 
Tides and Currents Weather Stations Pressure Air Temp Water Temp Dewpoint Dewpoint Depression Visibility Wind Speed Wind Dir Waves Ship Positions

Panamax Christina

Last reported at 2018-May-25 03:18 UTC. Time now 2018-Jun-18 00:22 UTC.
Position N 00°56' E 105°20'.
Warning: this ship's position is 23 days out of date.

Length 229 m; draft 6.9 m.

Type: Cargo ship. MMSI: 212921000.

Date/timePositionNaut miles runAvg speedWind from/ knotsBaromVisibWave heightAir tempDewpointWater temp
2018-May-25 03:18N 00°56' E 105°20'613.5
2018-May-25 02:51N 00°59' E 105°15'3913.2
2018-May-24 23:55N 01°21' E 104°43'612.8
2018-May-24 23:25N 01°23' E 104°37'612.7
2018-May-24 22:59N 01°24' E 104°32'712.5
2018-May-24 22:27N 01°22' E 104°25'613.1
2018-May-24 21:59N 01°18' E 104°21'612.5
2018-May-24 21:29N 01°16' E 104°15'613.0
2018-May-24 21:00N 01°16' E 104°08'612.7
2018-May-24 20:30N 01°15' E 104°02'4 8.8
2018-May-24 20:00N 01°15' E 103°58'2 3.6
2018-May-24 19:30N 01°17' E 103°57'0 0.0
2018-May-24 18:56N 01°17' E 103°57'0 0.0
2018-May-24 18:29N 01°17' E 103°57'0 0.0
2018-May-24 17:59N 01°17' E 103°57'0 0.1
2018-May-24 17:03N 01°17' E 103°56'0 0.1
2018-May-24 16:54N 01°17' E 103°56'0 0.0
2018-May-24 16:26N 01°17' E 103°56'0 0.0
2018-May-24 15:56N 01°17' E 103°56'0 0.0
2018-May-24 15:27N 01°17' E 103°56'0 0.0
2018-May-24 14:57N 01°17' E 103°56'0 0.0
2018-May-24 14:24N 01°17' E 103°56'0 0.0
2018-May-24 13:56N 01°17' E 103°56'0 0.0
2018-May-24 13:21N 01°17' E 103°56'8 1.8
2018-May-24 09:00N 01°11' E 103°51'612.2
2018-May-24 08:30N 01°08' E 103°46'713.7
2018-May-24 08:00N 01°03' E 103°40'611.1
2018-May-24 07:30N 01°05' E 103°35'4 8.2
2018-May-24 07:00N 01°08' E 103°32'4 8.9
2018-May-24 06:30N 01°12' E 103°32'510.3
2018-May-24 05:59N 01°17' E 103°33'3 4.5
2018-May-24 05:25N 01°20' E 103°33'0 0.0
2018-May-24 04:55N 01°20' E 103°33'0 0.0
2018-May-24 04:30N 01°20' E 103°33'0 0.0
2018-May-24 03:57N 01°20' E 103°33'0 0.0
2018-May-24 03:21N 01°20' E 103°33'0 0.0
2018-May-24 02:49N 01°20' E 103°33'0 0.0
2018-May-24 02:28N 01°20' E 103°33'0 0.0
2018-May-24 01:58N 01°20' E 103°33'0 0.0
2018-May-23 02:39N 01°20' E 103°33'0 0.0
2018-May-22 22:06N 01°20' E 103°33'0 0.0
2018-May-22 21:54N 01°20' E 103°33'0 0.0
2018-May-22 21:30N 01°20' E 103°33'0 0.0
2018-May-22 20:51N 01°20' E 103°33'0 0.0
2018-May-22 20:21N 01°20' E 103°33'0 0.0
2018-May-22 19:51N 01°20' E 103°33'0 0.0
2018-May-22 19:21N 01°20' E 103°33'0 0.0
2018-May-22 19:00N 01°20' E 103°33'0 0.0
2018-May-22 18:27N 01°20' E 103°33'0 0.0
2018-May-22 17:54N 01°20' E 103°33'0 0.0
2018-May-22 17:30N 01°20' E 103°33'0 0.0
2018-May-22 16:57N 01°20' E 103°33'0 0.0
2018-May-22 16:24N 01°20' E 103°33'0 0.0
2018-May-22 15:51N 01°20' E 103°33'0 0.0
2018-May-21 00:58N 01°20' E 103°33'0 0.0
2018-May-21 00:25N 01°20' E 103°33'0 0.0
2018-May-20 23:58N 01°20' E 103°33'0 0.0
2018-May-20 23:28N 01°20' E 103°33'0 0.0
2018-May-20 23:00N 01°20' E 103°33'0 0.0
2018-May-20 22:30N 01°20' E 103°33'0 0.0
2018-May-20 22:00N 01°20' E 103°33'0 0.2
2018-May-20 21:31N 01°20' E 103°33'1 1.6
2018-May-20 21:00N 01°19' E 103°33'2 4.9
2018-May-20 20:30N 01°17' E 103°33'2 4.9
2018-May-20 20:00N 01°15' E 103°32'2 3.1
2018-May-20 19:30N 01°14' E 103°30'1 2.3
2018-May-20 19:00N 01°15' E 103°29'0 0.2
2018-May-20 18:14N 01°15' E 103°29'0 0.0
2018-May-20 17:59N 01°15' E 103°29'0 0.0
2018-May-20 17:29N 01°15' E 103°29'0 0.0
2018-May-20 17:00N 01°15' E 103°29'0 0.0
2018-May-20 16:30N 01°15' E 103°29'0 0.0
2018-May-20 15:59N 01°15' E 103°29'0 0.0
2018-May-20 15:18N 01°15' E 103°29'0 0.3
2018-May-20 14:59N 01°15' E 103°29'0 0.2
2018-May-20 14:26N 01°15' E 103°29'0 0.1
2018-May-20 14:00N 01°15' E 103°29'0 0.2
2018-May-20 13:30N 01°15' E 103°29'0 0.1
2018-May-20 12:57N 01°15' E 103°29'0 0.1
2018-May-20 12:26N 01°15' E 103°29'0 0.2
2018-May-20 12:00N 01°15' E 103°29'0 0.2
2018-May-20 11:29N 01°15' E 103°29'0 0.0
2018-May-20 10:59N 01°15' E 103°29'0 0.3
2018-May-20 10:21N 01°14' E 103°30'0 0.2
2018-May-20 09:54N 01°15' E 103°30'0 0.0
2018-May-20 09:30N 01°15' E 103°30'0 0.0
2018-May-20 08:53N 01°15' E 103°30'0 0.0
2018-May-20 08:29N 01°15' E 103°30'0 0.0
2018-May-20 08:00N 01°15' E 103°30'0 0.0
2018-May-20 07:29N 01°15' E 103°30'0 0.0
2018-May-20 06:59N 01°15' E 103°30'0 0.1
2018-May-20 06:24N 01°15' E 103°30'0 0.0
2018-May-20 05:57N 01°15' E 103°30'0 0.1
2018-May-20 05:29N 01°15' E 103°30'0 0.0
2018-May-20 04:59N 01°15' E 103°30'0 0.1
2018-May-20 04:18N 01°15' E 103°30'0 0.3
2018-May-20 03:41N 01°15' E 103°29'0 0.2
2018-May-20 03:27N 01°15' E 103°29'0 0.1
2018-May-20 02:57N 01°15' E 103°29'0 0.0
2018-May-20 02:30N 01°15' E 103°29'0 0.0
2018-May-20 01:56N 01°15' E 103°29'0 0.0
2018-May-20 01:30N 01°15' E 103°29'0 0.0
2018-May-20 00:59N 01°15' E 103°29'0 0.0
2018-May-20 00:27N 01°15' E 103°29'0 0.0
2018-May-19 23:56N 01°15' E 103°29'0 0.2
2018-May-19 23:26N 01°15' E 103°29'0 0.1
2018-May-19 22:56N 01°15' E 103°29'0 0.1
2018-May-19 22:30N 01°15' E 103°29'0 0.1
2018-May-19 21:50N 01°14' E 103°29'0 0.2
2018-May-19 21:29N 01°14' E 103°30'0 0.1
2018-May-19 20:56N 01°15' E 103°30'0 0.0
2018-May-19 20:30N 01°15' E 103°30'0 0.0
2018-May-19 19:59N 01°15' E 103°30'0 0.0
2018-May-19 19:28N 01°15' E 103°30'0 0.0
2018-May-19 18:56N 01°15' E 103°30'0 0.0
2018-May-19 18:20N 01°15' E 103°30'0 0.1
2018-May-19 17:59N 01°14' E 103°30'0 0.2
2018-May-19 17:30N 01°15' E 103°30'0 0.4
2018-May-19 16:59N 01°15' E 103°29'0 0.1
2018-May-19 16:29N 01°15' E 103°29'0 0.1
2018-May-19 15:58N 01°15' E 103°29'0 0.0
2018-May-19 15:29N 01°15' E 103°29'0 0.0
2018-May-19 14:57N 01°15' E 103°29'0 0.1
2018-May-19 14:28N 01°15' E 103°29'0 0.2
2018-May-19 13:59N 01°15' E 103°29'0 0.1
2018-May-19 13:30N 01°15' E 103°29'0 0.1
2018-May-19 12:56N 01°15' E 103°29'0 0.1
2018-May-19 12:30N 01°15' E 103°29'0 0.1
2018-May-19 11:59N 01°15' E 103°29'0 0.2
2018-May-19 11:29N 01°15' E 103°30'2 3.6
2018-May-19 11:00N 01°15' E 103°28'3 6.6
2018-May-19 10:30N 01°18' E 103°26'0 0.2
2018-May-19 10:00N 01°18' E 103°25'0 0.3
2018-May-19 09:27N 01°17' E 103°25'0 0.4
2018-May-19 09:00N 01°17' E 103°26'0 0.0
2018-May-19 08:17N 01°17' E 103°26'0 0.2
2018-May-19 08:00N 01°17' E 103°26'0 0.0
2018-May-19 07:12N 01°18' E 103°26'0 0.0
2018-May-19 06:54N 01°17' E 103°26'0 0.0
2018-May-19 06:27N 01°17' E 103°26'0 0.0
2018-May-19 06:00N 01°17' E 103°26'0 0.0
2018-May-19 04:30N 01°17' E 103°26'0 0.0
2018-May-19 04:00N 01°17' E 103°26'0 0.3
2018-May-19 03:09N 01°18' E 103°25'0 0.1
2018-May-19 02:57N 01°18' E 103°25'0 0.0
2018-May-19 02:21N 01°18' E 103°25'0 0.0
2018-May-19 02:00N 01°18' E 103°25'0 0.0
2018-May-19 01:24N 01°18' E 103°25'0 0.0
2018-May-19 00:56N 01°18' E 103°25'0 0.0
2018-May-19 00:29N 01°18' E 103°25'0 0.1
2018-May-19 00:00N 01°18' E 103°25'0 0.0
2018-May-18 23:26N 01°18' E 103°25'0 0.1
2018-May-18 23:00N 01°18' E 103°25'0 0.1
2018-May-18 22:30N 01°18' E 103°25'0 0.0
2018-May-18 21:54N 01°18' E 103°25'0 0.1
2018-May-18 21:26N 01°18' E 103°25'0 0.3
2018-May-18 20:42N 01°17' E 103°26'0 0.0
2018-May-18 20:30N 01°17' E 103°26'0 0.0
2018-May-18 20:00N 01°17' E 103°26'0 0.0
2018-May-18 19:24N 01°17' E 103°26'0 0.0
2018-May-18 18:42N 01°17' E 103°26'0 0.0
2018-May-18 18:21N 01°17' E 103°26'0 0.0
2018-May-18 17:57N 01°17' E 103°26'0 0.0
2018-May-18 17:30N 01°17' E 103°26'0 0.1
2018-May-18 16:51N 01°17' E 103°26'0 0.1
2018-May-18 16:24N 01°17' E 103°26'0 0.1
2018-May-18 15:39N 01°17' E 103°26'0 0.3
2018-May-18 15:21N 01°18' E 103°26'0 0.2
2018-May-18 14:12N 01°18' E 103°25'0 0.0
2018-May-18 14:00N 01°18' E 103°25'0 0.0
2018-May-18 13:24N 01°18' E 103°25'0 0.0
2018-May-18 13:00N 01°18' E 103°25'0 0.0
2018-May-18 12:30N 01°18' E 103°25'0 0.0
2018-May-18 12:00N 01°18' E 103°25'0 0.0
2018-May-18 11:27N 01°18' E 103°25'0 0.0
2018-May-18 10:59N 01°18' E 103°25'0 0.1
2018-May-18 10:24N 01°18' E 103°25'0 0.0
2018-May-18 09:56N 01°18' E 103°25'0 0.0
2018-May-18 09:30N 01°18' E 103°25'0 0.2
2018-May-18 08:18N 01°17' E 103°26'0 0.2
2018-May-18 08:00N 01°17' E 103°26'0 0.0
2018-May-18 07:12N 01°17' E 103°26'0 0.0
2018-May-18 06:23N 01°17' E 103°26'1 1.5
2018-May-18 06:00N 01°17' E 103°25'4 7.0
2018-May-18 05:30N 01°14' E 103°24'612.2
2018-May-18 05:00N 01°17' E 103°19'  

Dump ship's entire track history